Time;durP1;ratioP1;P1;durP2;ratioP2;P2;SDS_P1;SDS_P2;PMS_P1;PMS_P2;Temp;Humidity;BMP_temperature;BMP_pressure;BME280_temperature;BME280_humidity;BME280_pressure;Samples;Min_cycle;Max_cycle;Signal;HPM_P1;HPM_P2
2023/09/12 00:00:06;;;;;;;18.00;9.93;;;20.50;1.00;;;;;;4989400;28;20615;-75
2023/09/12 00:02:32;;;;;;;58.60;11.10;;;20.40;1.00;;;;;;4988119;28;20723;-74
2023/09/12 00:04:57;;;;;;;23.10;10.50;;;20.30;1.00;;;;;;4974380;28;20214;-75
2023/09/12 00:07:23;;;;;;;19.83;11.20;;;20.40;1.00;;;;;;4992416;28;20572;-74
2023/09/12 00:09:48;;;;;;;18.40;11.17;;;20.20;1.00;;;;;;4991834;28;20281;-74
2023/09/12 00:12:15;;;;;;;25.63;10.60;;;20.20;1.00;;;;;;4992351;28;20332;-74
2023/09/12 00:14:40;;;;;;;20.00;10.93;;;20.30;1.00;;;;;;4974309;28;20526;-74
2023/09/12 00:17:06;;;;;;;20.67;11.13;;;20.30;1.00;;;;;;4991949;28;20429;-75
2023/09/12 00:19:31;;;;;;;22.03;10.43;;;20.20;1.00;;;;;;4974756;28;20560;-75
2023/09/12 00:21:57;;;;;;;20.23;10.40;;;20.20;1.00;;;;;;4990258;28;20182;-74
2023/09/12 00:24:22;;;;;;;15.57;11.20;;;20.10;1.00;;;;;;4991652;28;20257;-74
2023/09/12 00:26:48;;;;;;;22.90;11.23;;;20.10;1.00;;;;;;4991463;28;20198;-71
2023/09/12 00:29:13;;;;;;;17.73;9.87;;;20.00;1.00;;;;;;4991895;28;20190;-74
2023/09/12 00:31:39;;;;;;;19.43;10.27;;;22.20;1.00;;;;;;4987140;28;20261;-75
2023/09/12 00:34:04;;;;;;;19.53;9.70;;;20.10;1.00;;;;;;4990326;28;20314;-76
2023/09/12 00:36:30;;;;;;;24.87;10.60;;;20.10;1.00;;;;;;4991750;28;20285;-74
2023/09/12 00:38:56;;;;;;;15.80;10.60;;;20.10;1.00;;;;;;4991624;28;20197;-75
2023/09/12 00:41:21;;;;;;;15.80;10.23;;;20.20;1.00;;;;;;4991963;28;20683;-75
2023/09/12 00:43:47;;;;;;;18.67;10.00;;;20.20;1.00;;;;;;4991408;28;20539;-75
2023/09/12 00:46:19;;;;;;;16.07;10.50;;;20.20;1.00;;;;;;4991891;28;20174;-74
2023/09/12 00:48:46;;;;;;;15.93;10.50;;;20.20;1.00;;;;;;4991870;28;20310;-74
2023/09/12 00:51:14;;;;;;;17.47;10.27;;;20.30;1.00;;;;;;4981633;28;20520;-74
2023/09/12 00:53:39;;;;;;;18.70;10.40;;;20.20;1.00;;;;;;4991901;28;20437;-73
2023/09/12 00:56:06;;;;;;;22.37;10.50;;;20.20;1.00;;;;;;4991067;28;20469;-73
2023/09/12 00:58:32;;;;;;;23.20;10.70;;;20.30;1.00;;;;;;4991766;28;20675;-74
2023/09/12 01:00:58;;;;;;;18.97;11.37;;;20.40;1.00;;;;;;4983140;28;20419;-75
2023/09/12 01:03:24;;;;;;;16.43;10.87;;;20.40;1.00;;;;;;4990984;28;20524;-74
2023/09/12 01:05:51;;;;;;;20.07;10.87;;;20.40;1.00;;;;;;4990982;28;20207;-72
2023/09/12 01:08:17;;;;;;;15.47;11.00;;;20.60;1.00;;;;;;4991619;28;20179;-75
2023/09/12 01:10:45;;;;;;;24.43;11.70;;;20.50;1.00;;;;;;4991028;28;20848;-75
2023/09/12 01:13:15;;;;;;;19.83;11.50;;;20.60;1.00;;;;;;4991111;28;20377;-76
2023/09/12 01:15:41;;;;;;;17.63;11.80;;;20.50;1.00;;;;;;4990947;28;20991;-72
2023/09/12 01:18:08;;;;;;;19.20;10.87;;;20.50;1.00;;;;;;4991326;28;20534;-74
2023/09/12 01:20:35;;;;;;;18.23;10.73;;;20.10;1.00;;;;;;4991531;28;20534;-74
2023/09/12 01:23:26;;;;;;;20.20;10.90;;;20.00;1.00;;;;;;4990943;28;20190;-76
2023/09/12 01:26:16;;;;;;;16.30;10.50;;;19.90;1.00;;;;;;4990483;28;20460;-74
2023/09/12 01:28:44;;;;;;;19.53;11.40;;;19.90;1.00;;;;;;4991169;28;20433;-77
2023/09/12 01:31:11;;;;;;;14.87;10.10;;;19.80;1.00;;;;;;4989664;28;20434;-75
2023/09/12 01:33:36;;;;;;;18.83;11.47;;;19.80;1.00;;;;;;4985960;28;20549;-75
2023/09/12 01:36:02;;;;;;;18.50;10.70;;;19.70;1.00;;;;;;4990482;28;20560;-75
2023/09/12 01:38:29;;;;;;;19.10;10.80;;;19.60;1.00;;;;;;4973583;28;20277;-76
2023/09/12 01:40:55;;;;;;;20.20;11.80;;;19.50;1.00;;;;;;4990502;28;20198;-75
2023/09/12 01:43:25;;;;;;;19.07;11.10;;;19.40;1.00;;;;;;4990906;28;20430;-75
2023/09/12 01:45:54;;;;;;;20.10;11.63;;;19.40;1.00;;;;;;4990442;28;20289;-75
2023/09/12 01:48:26;;;;;;;16.23;10.53;;;19.50;1.00;;;;;;4983456;28;20585;-74
2023/09/12 01:50:52;;;;;;;16.63;10.60;;;19.50;1.00;;;;;;4990417;28;20421;-72
2023/09/12 01:53:19;;;;;;;20.30;11.40;;;19.50;1.00;;;;;;4990491;28;20444;-74
2023/09/12 01:55:46;;;;;;;15.93;10.40;;;19.50;1.00;;;;;;4972838;28;20225;-73
2023/09/12 01:58:12;;;;;;;19.20;10.93;;;19.50;1.00;;;;;;4973004;28;20872;-74
2023/09/12 02:00:39;;;;;;;16.43;10.57;;;19.50;1.00;;;;;;4990369;28;20450;-74
2023/09/12 02:03:05;;;;;;;22.63;10.73;;;19.50;1.00;;;;;;4990327;28;20437;-76
2023/09/12 02:05:31;;;;;;;17.77;11.10;;;19.50;1.00;;;;;;4990044;28;20464;-75
2023/09/12 02:07:56;;;;;;;27.37;11.03;;;19.60;1.00;;;;;;4989907;28;20612;-73
2023/09/12 02:10:22;;;;;;;15.53;11.10;;;19.60;1.00;;;;;;4990546;28;20193;-74
2023/09/12 02:12:47;;;;;;;30.73;11.00;;;19.60;1.00;;;;;;4990351;28;20214;-76
2023/09/12 02:15:13;;;;;;;17.90;11.03;;;19.60;1.00;;;;;;4988782;28;20732;-72
2023/09/12 02:17:38;;;;;;;18.40;11.47;;;19.60;1.00;;;;;;4990434;28;20231;-73
2023/09/12 02:20:06;;;;;;;19.00;11.50;;;19.50;1.00;;;;;;4990066;28;20630;-74
2023/09/12 02:22:32;;;;;;;26.10;10.80;;;19.40;1.00;;;;;;4989987;28;20206;-74
2023/09/12 02:24:57;;;;;;;16.43;10.50;;;19.40;1.00;;;;;;4989577;28;20493;-73
2023/09/12 02:27:23;;;;;;;21.17;11.70;;;19.40;1.00;;;;;;4990122;28;20241;-74
2023/09/12 02:29:49;;;;;;;19.43;11.23;;;19.40;1.00;;;;;;4990239;28;20245;-75
2023/09/12 02:32:14;;;;;;;23.30;11.37;;;19.30;1.00;;;;;;4982837;28;20191;-77
2023/09/12 02:34:39;;;;;;;18.47;11.47;;;19.20;1.00;;;;;;4989893;28;20325;-74
2023/09/12 02:37:05;;;;;;;23.60;11.40;;;19.20;1.00;;;;;;4989365;28;20214;-74
2023/09/12 02:39:30;;;;;;;23.03;11.87;;;19.10;1.00;;;;;;4990195;28;20194;-75
2023/09/12 02:41:56;;;;;;;17.40;10.53;;;19.10;1.00;;;;;;4989660;28;20189;-71
2023/09/12 02:44:21;;;;;;;28.20;11.60;;;19.00;1.00;;;;;;4989885;28;20241;-74
2023/09/12 02:46:48;;;;;;;20.63;11.40;;;19.00;1.00;;;;;;4989936;28;20591;-73
2023/09/12 02:49:14;;;;;;;21.37;11.87;;;19.00;1.00;;;;;;4989775;28;20210;-74
2023/09/12 02:51:39;;;;;;;18.40;11.43;;;18.80;1.00;;;;;;4989760;28;20468;-76
2023/09/12 02:54:05;;;;;;;18.03;11.37;;;19.00;1.00;;;;;;4989281;28;20195;-77
2023/09/12 02:56:31;;;;;;;18.30;10.73;;;19.00;1.00;;;;;;4989370;28;20321;-76
2023/09/12 02:58:57;;;;;;;21.07;11.90;;;19.00;1.00;;;;;;4989948;28;20903;-74
2023/09/12 03:01:22;;;;;;;20.60;11.80;;;19.00;1.00;;;;;;4988710;28;20237;-74
2023/09/12 03:03:49;;;;;;;20.90;11.53;;;19.00;1.00;;;;;;4989653;28;20186;-74
2023/09/12 03:06:15;;;;;;;22.60;11.97;;;19.00;1.00;;;;;;4971745;28;20187;-74
2023/09/12 03:08:41;;;;;;;22.30;12.10;;;19.00;1.00;;;;;;4989723;28;20429;-74
2023/09/12 03:11:07;;;;;;;23.00;11.80;;;19.10;1.00;;;;;;4989632;28;20788;-74
2023/09/12 03:13:33;;;;;;;25.00;11.27;;;19.10;1.00;;;;;;4989838;28;20437;-75
2023/09/12 03:15:59;;;;;;;22.80;10.67;;;19.20;1.00;;;;;;4989098;28;20473;-73
2023/09/12 03:18:25;;;;;;;15.43;10.70;;;19.20;1.00;;;;;;4972423;28;20435;-74
2023/09/12 03:20:50;;;;;;;20.80;10.10;;;19.20;1.00;;;;;;4989426;28;20199;-74
2023/09/12 03:23:16;;;;;;;17.80;11.03;;;19.20;1.00;;;;;;4989322;28;20562;-74
2023/09/12 03:25:41;;;;;;;19.17;10.83;;;19.20;1.00;;;;;;4989259;28;20210;-74
2023/09/12 03:28:07;;;;;;;20.50;11.07;;;19.20;1.00;;;;;;4992699;28;20178;-76
2023/09/12 03:30:35;;;;;;;15.53;10.70;;;19.30;1.00;;;;;;4993485;28;20197;-76
2023/09/12 03:33:00;;;;;;;23.93;10.60;;;19.40;1.00;;;;;;4992913;28;20481;-72
2023/09/12 03:35:28;;;;;;;18.77;10.90;;;19.50;1.00;;;;;;4992721;28;20473;-74
2023/09/12 03:37:53;;;;;;;16.80;10.23;;;19.50;1.00;;;;;;4993284;28;20195;-77
2023/09/12 03:40:19;;;;;;;13.33;10.37;;;21.30;1.00;;;;;;4993000;28;20444;-74
2023/09/12 03:42:45;;;;;;;18.70;9.93;;;19.60;1.00;;;;;;4993185;28;20190;-74
2023/09/12 03:45:11;;;;;;;19.57;9.80;;;19.70;1.00;;;;;;4992633;28;20210;-74
2023/09/12 03:47:36;;;;;;;18.47;10.67;;;19.80;1.00;;;;;;4993050;28;20187;-75
2023/09/12 03:50:02;;;;;;;17.70;10.80;;;19.90;1.00;;;;;;4992641;28;20447;-75
2023/09/12 03:52:28;;;;;;;22.30;10.77;;;19.90;1.00;;;;;;4993039;28;20497;-75
2023/09/12 03:54:53;;;;;;;17.73;10.97;;;20.00;1.00;;;;;;4992611;28;20253;-75
2023/09/12 03:57:19;;;;;;;18.97;9.30;;;20.10;1.00;;;;;;4992859;28;20585;-74
2023/09/12 03:59:46;;;;;;;14.23;9.83;;;20.00;1.00;;;;;;4993010;28;20183;-74
2023/09/12 04:02:12;;;;;;;15.43;10.37;;;22.60;1.00;;;;;;4992379;28;20182;-74
2023/09/12 04:04:38;;;;;;;15.80;9.70;;;19.90;1.00;;;;;;4992322;28;20457;-75
2023/09/12 04:07:04;;;;;;;18.73;10.10;;;19.90;1.00;;;;;;4992425;28;20226;-75
2023/09/12 04:09:29;;;;;;;14.80;9.93;;;19.90;1.00;;;;;;4992534;28;20191;-74
2023/09/12 04:11:55;;;;;;;18.00;10.40;;;20.00;1.00;;;;;;4992582;28;20187;-76
2023/09/12 04:14:21;;;;;;;17.93;9.80;;;20.10;1.00;;;;;;4992060;28;20311;-73
2023/09/12 04:16:47;;;;;;;18.00;9.80;;;20.10;1.00;;;;;;4992514;28;20198;-74
2023/09/12 04:19:14;;;;;;;19.17;9.73;;;20.10;1.00;;;;;;4992073;28;20445;-74
2023/09/12 04:21:39;;;;;;;16.93;9.63;;;20.20;1.00;;;;;;4992579;28;20262;-77
2023/09/12 04:24:06;;;;;;;22.43;9.90;;;20.20;1.00;;;;;;4991676;28;20579;-75
2023/09/12 04:26:31;;;;;;;14.97;9.60;;;20.20;1.00;;;;;;4992197;28;20174;-77
2023/09/12 04:28:57;;;;;;;16.47;10.33;;;20.20;1.00;;;;;;4992320;28;20445;-74
2023/09/12 04:31:22;;;;;;;18.37;10.20;;;20.30;1.00;;;;;;4991636;28;20192;-75
2023/09/12 04:33:52;;;;;;;17.73;10.47;;;20.40;1.00;;;;;;4991851;28;20779;-73
2023/09/12 04:36:17;;;;;;;13.77;8.80;;;20.40;1.00;;;;;;4974354;28;20230;-74
2023/09/12 04:38:43;;;;;;;21.87;10.00;;;20.40;1.00;;;;;;4991320;28;20450;-74
2023/09/12 04:41:09;;;;;;;14.73;10.07;;;23.00;1.00;;;;;;4991743;28;20589;-76
2023/09/12 04:43:35;;;;;;;14.73;10.30;;;20.60;1.00;;;;;;4992244;28;20175;-74
2023/09/12 04:46:00;;;;;;;20.20;10.63;;;20.70;1.00;;;;;;4991604;28;21199;-77
2023/09/12 04:48:26;;;;;;;18.10;11.10;;;20.70;1.00;;;;;;4991690;28;20669;-74
2023/09/12 04:50:52;;;;;;;31.30;11.80;;;20.70;1.00;;;;;;4991858;28;20194;-74
2023/09/12 04:53:17;;;;;;;23.93;11.00;;;20.60;1.00;;;;;;4991171;28;20183;-74
2023/09/12 04:55:43;;;;;;;20.47;11.10;;;20.70;1.00;;;;;;4991365;28;20210;-76
2023/09/12 04:58:08;;;;;;;17.23;10.97;;;20.70;1.00;;;;;;4991483;28;20229;-75
2023/09/12 05:00:34;;;;;;;18.90;12.00;;;20.70;1.00;;;;;;4991490;28;20389;-73
2023/09/12 05:03:02;;;;;;;30.07;13.00;;;20.70;1.00;;;;;;4991561;28;20680;-75
2023/09/12 05:05:27;;;;;;;19.20;12.73;;;20.60;1.00;;;;;;4991014;28;20222;-74
2023/09/12 05:07:53;;;;;;;17.30;12.10;;;20.60;1.00;;;;;;4991532;28;20441;-74
2023/09/12 05:10:19;;;;;;;19.00;12.87;;;20.60;1.00;;;;;;4991401;28;20185;-74
2023/09/12 05:12:44;;;;;;;22.83;12.60;;;20.50;1.00;;;;;;4991535;28;20182;-74
2023/09/12 05:15:10;;;;;;;24.47;12.67;;;20.70;1.00;;;;;;4990757;28;20665;-73
2023/09/12 05:17:36;;;;;;;24.23;12.60;;;20.70;1.00;;;;;;4991265;28;20586;-74
2023/09/12 05:20:04;;;;;;;23.80;12.23;;;20.80;1.00;;;;;;4991441;28;20187;-74
2023/09/12 05:22:30;;;;;;;17.03;12.57;;;20.80;1.00;;;;;;4990999;28;20794;-75
2023/09/12 05:24:55;;;;;;;20.07;11.93;;;20.90;1.00;;;;;;4990968;28;20478;-74
2023/09/12 05:27:21;;;;;;;22.10;11.33;;;20.90;1.00;;;;;;4991289;28;20186;-74
2023/09/12 05:29:46;;;;;;;17.70;12.20;;;20.80;1.00;;;;;;4991456;28;20277;-75
2023/09/12 05:32:12;;;;;;;18.70;11.63;;;20.70;1.00;;;;;;4990239;28;20182;-72
2023/09/12 05:34:37;;;;;;;21.60;12.30;;;20.70;1.00;;;;;;4990797;28;20285;-73
2023/09/12 05:37:03;;;;;;;25.43;11.37;;;20.80;1.00;;;;;;4991083;28;20289;-74
2023/09/12 05:39:29;;;;;;;28.07;11.23;;;20.80;1.00;;;;;;4973304;28;20294;-75
2023/09/12 05:41:54;;;;;;;17.40;12.10;;;20.90;1.00;;;;;;4991004;28;20178;-75
2023/09/12 05:44:19;;;;;;;21.17;12.07;;;20.90;1.00;;;;;;4973055;28;20320;-75
2023/09/12 05:46:46;;;;;;;21.30;12.30;;;20.90;1.00;;;;;;4973210;28;20661;-74
2023/09/12 05:49:13;;;;;;;20.10;12.70;;;20.90;1.00;;;;;;4990977;28;20190;-75
2023/09/12 05:51:38;;;;;;;18.67;11.67;;;20.90;1.00;;;;;;4982944;28;20436;-75
2023/09/12 05:54:04;;;;;;;18.03;11.10;;;20.90;1.00;;;;;;4973001;28;20442;-76
2023/09/12 05:56:29;;;;;;;20.17;11.90;;;20.90;1.00;;;;;;4990230;28;20202;-74
2023/09/12 05:58:55;;;;;;;17.97;12.23;;;20.90;1.00;;;;;;4990643;28;20573;-74
2023/09/12 06:01:20;;;;;;;22.80;12.33;;;20.80;1.00;;;;;;4989867;28;20186;-72
2023/09/12 06:03:46;;;;;;;21.20;11.90;;;20.80;1.00;;;;;;4983460;28;20183;-74
2023/09/12 06:06:12;;;;;;;22.17;12.53;;;20.80;1.00;;;;;;4990485;28;20705;-74
2023/09/12 06:08:37;;;;;;;22.97;11.63;;;20.80;1.00;;;;;;4990431;28;20186;-76
2023/09/12 06:11:03;;;;;;;19.97;11.90;;;20.90;1.00;;;;;;4990443;28;20189;-74
2023/09/12 06:13:30;;;;;;;19.30;12.33;;;20.90;1.00;;;;;;4990040;28;20201;-75
2023/09/12 06:15:55;;;;;;;18.43;11.60;;;21.00;1.00;;;;;;4989926;28;20464;-75
2023/09/12 06:18:21;;;;;;;23.53;11.73;;;21.00;1.00;;;;;;4990136;28;20422;-77
2023/09/12 06:20:46;;;;;;;19.00;11.83;;;21.10;1.00;;;;;;4989961;28;20296;-74
2023/09/12 06:23:12;;;;;;;19.77;12.40;;;21.10;1.00;;;;;;4990331;28;20538;-74
2023/09/12 06:25:37;;;;;;;19.50;12.10;;;21.10;1.00;;;;;;4988560;28;20439;-73
2023/09/12 06:28:03;;;;;;;21.80;11.83;;;21.20;1.00;;;;;;4990447;28;20861;-72
2023/09/12 06:30:29;;;;;;;21.30;12.30;;;21.10;1.00;;;;;;4989856;28;20200;-73
2023/09/12 06:32:54;;;;;;;18.57;12.37;;;21.10;1.00;;;;;;4972485;28;20186;-74
2023/09/12 06:35:20;;;;;;;19.40;12.17;;;21.10;1.00;;;;;;4989579;28;20653;-74
2023/09/12 06:37:47;;;;;;;19.67;12.30;;;21.20;1.00;;;;;;4990321;28;20269;-71
2023/09/12 06:40:12;;;;;;;21.00;12.30;;;21.70;1.00;;;;;;4990408;28;20202;-75
2023/09/12 06:42:38;;;;;;;24.93;11.47;;;22.50;1.00;;;;;;4989810;28;20495;-76
2023/09/12 06:45:04;;;;;;;27.53;10.67;;;23.30;1.00;;;;;;4990103;28;20313;-73
2023/09/12 06:47:29;;;;;;;28.87;11.17;;;23.40;1.00;;;;;;4990105;28;20261;-74
2023/09/12 06:49:55;;;;;;;19.00;9.90;;;23.40;1.00;;;;;;4990326;28;20645;-74
2023/09/12 06:52:20;;;;;;;13.90;9.33;;;23.40;1.00;;;;;;4989432;28;20549;-75
2023/09/12 06:54:46;;;;;;;19.63;9.50;;;23.60;1.00;;;;;;4989740;28;20688;-73
2023/09/12 06:57:11;;;;;;;17.37;9.60;;;23.80;1.00;;;;;;4989972;28;20210;-74
2023/09/12 06:59:37;;;;;;;16.87;8.40;;;24.40;1.00;;;;;;4989558;28;20186;-74
2023/09/12 07:02:03;;;;;;;22.13;8.60;;;24.70;1.00;;;;;;4991203;28;20186;-76
2023/09/12 07:04:29;;;;;;;18.10;8.50;;;24.40;1.00;;;;;;4993382;28;20237;-76
2023/09/12 07:06:55;;;;;;;17.03;8.03;;;24.30;1.00;;;;;;4994005;28;20186;-75
2023/09/12 07:09:20;;;;;;;20.53;8.90;;;24.10;1.00;;;;;;4993740;28;20966;-72
2023/09/12 07:11:47;;;;;;;21.47;8.50;;;24.10;1.00;;;;;;4993893;28;20183;-74
2023/09/12 07:14:12;;;;;;;28.90;9.10;;;24.60;1.00;;;;;;4993321;28;20217;-74
2023/09/12 07:16:38;;;;;;;24.03;9.20;;;24.70;1.00;;;;;;4993546;28;20839;-75
2023/09/12 07:19:03;;;;;;;16.17;8.17;;;25.50;1.00;;;;;;4993775;28;20556;-74
2023/09/12 07:21:29;;;;;;;18.90;9.10;;;26.50;1.00;;;;;;4993603;28;20187;-74
2023/09/12 07:23:55;;;;;;;19.63;8.60;;;28.10;1.00;;;;;;4975864;28;20178;-74
2023/09/12 07:26:20;;;;;;;15.03;8.70;;;28.10;1.00;;;;;;4993424;28;20186;-75
2023/09/12 07:28:46;;;;;;;17.77;9.30;;;28.60;1.00;;;;;;4993042;28;20198;-74
2023/09/12 07:31:11;;;;;;;16.60;9.32;;;28.90;1.00;;;;;;4993393;28;20190;-76
2023/09/12 07:33:37;;;;;;;13.98;9.30;;;29.30;1.00;;;;;;4993266;28;20334;-74
2023/09/12 07:36:03;;;;;;;15.80;9.98;;;29.90;1.00;;;;;;4993427;28;20214;-76
2023/09/12 07:38:30;;;;;;;19.20;11.10;;;30.20;1.00;;;;;;4993302;28;20624;-74
2023/09/12 07:40:56;;;;;;;18.35;10.35;;;30.30;1.00;;;;;;4993421;28;20588;-76
2023/09/12 07:43:22;;;;;;;20.30;11.20;;;30.10;1.00;;;;;;4975693;28;20699;-75
2023/09/12 07:45:49;;;;;;;17.02;10.50;;;29.80;1.00;;;;;;4985363;28;20214;-75
2023/09/12 07:48:15;;;;;;;16.75;11.73;;;30.00;1.00;;;;;;4993359;28;20213;-76
2023/09/12 07:50:40;;;;;;;18.58;12.07;;;30.10;1.00;;;;;;4992858;28;20202;-75
2023/09/12 07:53:07;;;;;;;19.63;11.40;;;30.40;1.00;;;;;;4993356;28;20179;-74
2023/09/12 07:55:48;;;;;;;17.92;11.20;;;30.10;1.00;;;;;;4992364;28;20264;-74
2023/09/12 07:58:14;;;;;;;18.85;12.90;;;30.40;1.00;;;;;;4993274;28;20201;-74
2023/09/12 08:00:40;;;;;;;19.58;12.60;;;30.30;1.00;;;;;;4992573;28;20182;-75
2023/09/12 08:03:05;;;;;;;19.67;12.02;;;30.40;1.00;;;;;;4975380;28;20182;-75
2023/09/12 08:05:31;;;;;;;18.85;12.30;;;30.90;1.00;;;;;;4992350;28;20305;-75
2023/09/12 08:07:56;;;;;;;20.15;12.25;;;31.30;1.00;;;;;;4993299;28;20190;-75
2023/09/12 08:10:22;;;;;;;20.15;10.80;;;31.10;1.00;;;;;;4992732;28;20391;-77
2023/09/12 08:12:47;;;;;;;18.05;10.68;;;31.70;1.00;;;;;;4992452;28;20187;-75
2023/09/12 08:15:13;;;;;;;16.73;11.18;;;31.90;1.00;;;;;;4974990;28;20240;-74
2023/09/12 08:17:39;;;;;;;16.52;10.93;;;32.10;1.00;;;;;;4992421;28;20179;-76
2023/09/12 08:20:06;;;;;;;17.58;11.07;;;32.30;1.00;;;;;;4992767;28;20332;-76
2023/09/12 08:22:32;;;;;;;17.27;11.23;;;32.80;1.00;;;;;;4992242;28;20187;-74
2023/09/12 08:24:57;;;;;;;14.50;10.20;;;33.20;1.00;;;;;;4992015;28;20199;-76
2023/09/12 08:27:23;;;;;;;22.25;10.65;;;33.40;1.00;;;;;;4992494;28;20186;-75
2023/09/12 08:29:49;;;;;;;14.32;9.77;;;33.30;1.00;;;;;;4991699;28;20209;-75
2023/09/12 08:32:14;;;;;;;15.95;11.20;;;33.40;1.00;;;;;;4992469;28;20190;-76
2023/09/12 08:34:40;;;;;;;14.25;9.85;;;33.70;1.00;;;;;;4991610;28;20217;-75
2023/09/12 08:37:05;;;;;;;15.07;10.52;;;33.70;1.00;;;;;;4992299;28;20198;-75
2023/09/12 08:39:42;;;;;;;14.98;9.98;;;34.20;1.00;;;;;;4991794;28;20190;-74
2023/09/12 08:42:11;;;;;;;22.35;11.10;;;34.50;1.00;;;;;;4974411;28;20463;-75
2023/09/12 08:44:37;;;;;;;13.88;9.88;;;35.50;1.00;;;;;;4991238;28;20252;-77
2023/09/12 08:47:05;;;;;;;13.73;9.65;;;35.60;1.00;;;;;;4974376;28;20187;-76
2023/09/12 08:49:33;;;;;;;17.70;9.80;;;36.00;1.00;;;;;;4991494;28;20691;-74
2023/09/12 08:51:58;;;;;;;20.80;9.32;;;35.70;1.00;;;;;;4991514;28;20193;-76
2023/09/12 08:54:24;;;;;;;16.20;10.15;;;35.50;1.00;;;;;;4991397;28;20210;-76
2023/09/12 08:56:50;;;;;;;13.88;9.80;;;35.10;1.00;;;;;;4990685;28;20617;-73
2023/09/12 08:59:16;;;;;;;16.10;10.32;;;35.70;1.00;;;;;;4991622;28;20669;-75
2023/09/12 09:01:43;;;;;;;14.93;9.50;;;35.80;1.00;;;;;;4989614;28;20731;-77
2023/09/12 09:04:09;;;;;;;12.52;9.75;;;37.50;1.00;;;;;;4991299;28;20217;-75
2023/09/12 09:06:37;;;;;;;15.90;9.55;;;36.90;1.00;;;;;;4990636;28;20206;-75
2023/09/12 09:09:05;;;;;;;15.15;10.32;;;37.40;1.00;;;;;;4991569;28;20202;-76
2023/09/12 09:11:30;;;;;;;14.27;9.07;;;37.50;1.00;;;;;;4974005;28;20209;-75
2023/09/12 09:13:56;;;;;;;12.88;9.20;;;36.80;1.00;;;;;;4983001;28;20660;-75
2023/09/12 09:16:23;;;;;;;18.30;9.48;;;36.80;1.00;;;;;;4991288;28;20237;-76
2023/09/12 09:18:57;;;;;;;18.25;9.88;;;36.90;1.00;;;;;;4991100;28;20229;-75
2023/09/12 09:21:25;;;;;;;12.75;9.50;;;36.90;1.00;;;;;;4991163;28;20182;-75
2023/09/12 09:23:54;;;;;;;15.23;9.85;;;37.30;1.00;;;;;;4990262;28;20182;-76
2023/09/12 09:26:20;;;;;;;16.60;10.68;;;37.20;1.00;;;;;;4973345;28;20210;-76
2023/09/12 09:29:02;;;;;;;13.18;9.98;;;37.80;1.00;;;;;;4990584;28;20234;-76
2023/09/12 09:31:28;;;;;;;16.88;9.55;;;38.50;1.00;;;;;;4973507;28;20190;-75
2023/09/12 09:33:54;;;;;;;17.00;9.60;;;38.30;1.00;;;;;;4990075;28;20190;-75
2023/09/12 09:36:20;;;;;;;13.65;10.13;;;38.20;1.00;;;;;;4990887;28;20392;-76
2023/09/12 09:38:46;;;;;;;13.73;9.88;;;37.80;1.00;;;;;;4990624;28;20241;-76
2023/09/12 09:41:11;;;;;;;19.15;10.70;;;37.80;1.00;;;;;;4990771;28;20649;-75
2023/09/12 09:43:37;;;;;;;12.02;9.75;;;37.30;1.00;;;;;;4990262;28;20189;-74
2023/09/12 09:46:03;;;;;;;13.55;10.52;;;37.90;1.00;;;;;;4990277;28;20202;-73
2023/09/12 09:48:31;;;;;;;15.23;10.50;;;38.00;1.00;;;;;;4990877;28;20426;-74
2023/09/12 09:51:01;;;;;;;16.83;10.73;;;36.80;1.00;;;;;;4972756;28;20194;-75
2023/09/12 09:53:28;;;;;;;18.77;10.25;;;36.50;1.00;;;;;;4990549;28;20182;-78
2023/09/12 09:56:14;;;;;;;12.90;10.48;;;37.80;1.00;;;;;;4989836;28;20301;-76
2023/09/12 09:58:52;;;;;;;15.75;10.07;;;38.80;1.00;;;;;;4989811;28;20273;-75
2023/09/12 10:01:23;;;;;;;13.45;9.57;;;39.50;1.00;;;;;;4990512;28;20209;-76
2023/09/12 10:03:50;;;;;;;17.10;10.35;;;38.00;1.00;;;;;;4988378;28;20186;-76
2023/09/12 10:06:19;;;;;;;16.17;9.93;;;37.90;1.00;;;;;;4990195;28;20187;-77
2023/09/12 10:08:49;;;;;;;13.27;9.68;;;37.90;1.00;;;;;;4990039;28;20179;-76
2023/09/12 10:11:16;;;;;;;17.30;9.85;;;38.40;1.00;;;;;;4989878;28;20183;-76
2023/09/12 10:13:49;;;;;;;15.82;10.65;;;39.40;1.00;;;;;;4989821;28;20197;-76
2023/09/12 10:16:16;;;;;;;15.80;8.32;;;39.80;1.00;;;;;;4972548;28;20237;-76
2023/09/12 10:18:53;;;;;;;14.55;9.05;;;39.40;1.00;;;;;;4989922;28;20178;-75
2023/09/12 10:21:24;;;;;;;24.42;9.10;;;38.90;1.00;;;;;;4990156;28;20228;-76
2023/09/12 10:23:50;;;;;;;15.00;8.98;;;40.40;1.00;;;;;;4989358;28;20182;-73
2023/09/12 10:26:17;;;;;;;10.20;7.85;;;40.40;1.00;;;;;;4989783;28;20186;-75
2023/09/12 10:28:43;;;;;;;11.13;7.63;;;41.40;1.00;;;;;;4989651;28;20256;-75
2023/09/12 10:31:11;;;;;;;10.95;8.15;;;41.70;1.00;;;;;;4989881;28;20182;-77
2023/09/12 10:33:37;;;;;;;10.38;9.27;;;41.20;1.00;;;;;;4989528;28;20179;-77
2023/09/12 10:36:04;;;;;;;14.55;9.07;;;41.50;1.00;;;;;;4988191;28;20693;-76
2023/09/12 10:38:32;;;;;;;14.43;8.48;;;40.20;1.00;;;;;;4990159;28;20194;-76
2023/09/12 10:41:01;;;;;;;11.50;8.48;;;38.30;1.00;;;;;;4989766;28;20241;-76
2023/09/12 10:43:28;;;;;;;21.15;8.82;;;36.90;1.00;;;;;;4972944;28;20218;-76
2023/09/12 10:45:56;;;;;;;13.63;10.20;;;35.70;1.00;;;;;;4989646;28;20233;-76
2023/09/12 10:48:22;;;;;;;18.50;10.00;;;34.70;1.00;;;;;;4990292;28;20198;-75
2023/09/12 10:50:48;;;;;;;15.85;11.10;;;34.30;1.00;;;;;;4989393;28;20182;-76
2023/09/12 10:53:15;;;;;;;11.65;9.93;;;34.70;1.00;;;;;;4989984;28;20660;-77
2023/09/12 10:55:59;;;;;;;15.85;10.35;;;36.40;1.00;;;;;;4989225;28;20199;-75
2023/09/12 10:58:25;;;;;;;22.75;10.65;;;37.20;1.00;;;;;;4972509;28;20182;-76
2023/09/12 11:01:23;;;;;;;12.38;9.63;;;38.90;1.00;;;;;;4989201;28;20731;-77
2023/09/12 11:03:48;;;;;;;12.43;8.88;;;40.40;1.00;;;;;;4987211;28;20269;-76
2023/09/12 11:06:30;;;;;;;14.05;8.55;;;40.20;1.00;;;;;;4972581;28;20847;-76
2023/09/12 11:09:14;;;;;;;10.93;8.23;;;41.00;1.00;;;;;;4989810;28;20193;-76
2023/09/12 11:11:41;;;;;;;13.02;8.73;;;42.00;1.00;;;;;;4990111;28;20186;-76
2023/09/12 11:14:07;;;;;;;13.30;8.55;;;42.70;1.00;;;;;;4989821;28;20230;-77
2023/09/12 11:16:33;;;;;;;9.50;8.15;;;42.80;1.00;;;;;;4989807;28;20301;-76
2023/09/12 11:19:18;;;;;;;9.82;7.57;;;42.30;1.00;;;;;;4989577;28;20210;-75
2023/09/12 11:21:50;;;;;;;10.35;7.65;;;42.60;1.00;;;;;;4989352;28;20191;-74
2023/09/12 11:24:17;;;;;;;12.95;8.40;;;42.80;1.00;;;;;;4989324;28;20210;-78
2023/09/12 11:27:12;;;;;;;12.70;8.30;;;42.80;1.00;;;;;;4989653;28;20190;-77
2023/09/12 11:29:39;;;;;;;11.77;7.90;;;43.10;1.00;;;;;;4972868;28;20203;-75
2023/09/12 11:32:05;;;;;;;10.05;8.20;;;44.00;1.00;;;;;;4989395;28;20657;-76
2023/09/12 11:34:42;;;;;;;13.10;8.02;;;44.70;1.00;;;;;;4988505;28;20206;-76
2023/09/12 11:37:08;;;;;;;14.95;8.35;;;44.80;1.00;;;;;;4989394;28;20760;-78
2023/09/12 11:39:36;;;;;;;10.85;8.10;;;43.60;1.00;;;;;;4989814;28;20266;-76
2023/09/12 11:42:04;;;;;;;11.27;8.23;;;44.10;1.00;;;;;;4989706;28;20186;-76
2023/09/12 11:44:31;;;;;;;10.73;7.40;;;44.30;1.00;;;;;;4989391;28;20210;-76
2023/09/12 11:47:06;;;;;;;9.40;7.95;;;44.50;1.00;;;;;;4989043;28;20752;-78
2023/09/12 11:49:39;;;;;;;11.40;7.70;;;44.60;1.00;;;;;;4993368;28;20257;-75
2023/09/12 11:52:09;;;;;;;10.02;7.38;;;44.00;1.00;;;;;;4992834;28;20221;-76
2023/09/12 11:54:35;;;;;;;18.65;8.10;;;45.00;1.00;;;;;;4992730;28;20245;-77
2023/09/12 11:57:02;;;;;;;10.10;7.53;;;45.20;1.00;;;;;;4992565;28;20234;-76
2023/09/12 11:59:31;;;;;;;8.40;7.35;;;45.60;1.00;;;;;;4992922;28;20237;-76
2023/09/12 12:01:57;;;;;;;13.00;7.85;;;45.50;1.00;;;;;;4988934;28;20238;-76
2023/09/12 12:04:25;;;;;;;10.57;7.10;;;45.50;1.00;;;;;;4992653;28;20214;-76
2023/09/12 12:06:52;;;;;;;8.02;6.97;;;45.50;1.00;;;;;;4992524;28;20664;-76
2023/09/12 12:09:19;;;;;;;10.63;7.07;;;45.70;1.00;;;;;;4992845;28;20634;-78
2023/09/12 12:11:46;;;;;;;14.25;6.70;;;45.80;1.00;;;;;;4992695;28;20566;-76
2023/09/12 12:14:19;;;;;;;8.02;6.75;;;46.10;1.00;;;;;;4992047;28;20707;-76
2023/09/12 12:16:46;;;;;;;11.80;7.10;;;46.10;1.00;;;;;;4992667;28;20210;-76
2023/09/12 12:19:13;;;;;;;14.23;6.82;;;46.30;1.00;;;;;;4992489;28;20183;-76
2023/09/12 12:21:42;;;;;;;12.52;7.40;;;46.40;1.00;;;;;;4992603;28;20244;-77
2023/09/12 12:24:12;;;;;;;12.23;7.28;;;46.70;1.00;;;;;;4991886;28;20205;-76
2023/09/12 12:26:37;;;;;;;9.25;7.13;;;46.80;1.00;;;;;;4992184;28;20188;-77
2023/09/12 12:29:04;;;;;;;9.52;6.78;;;47.40;1.00;;;;;;4991667;28;20195;-77
2023/09/12 12:31:30;;;;;;;10.18;6.93;;;48.30;1.00;;;;;;4974945;28;20293;-77
2023/09/12 12:33:56;;;;;;;14.05;7.15;;;47.50;1.00;;;;;;4990636;28;20189;-77
2023/09/12 12:36:22;;;;;;;10.00;6.72;;;47.50;1.00;;;;;;4974910;28;20592;-77
2023/09/12 12:38:49;;;;;;;13.52;6.25;;;48.20;1.00;;;;;;4992625;28;20171;-77